Time;durP1;ratioP1;P1;durP2;ratioP2;P2;SDS_P1;SDS_P2;PMS_P1;PMS_P2;Temp;Humidity;BMP_temperature;BMP_pressure;BME280_temperature;BME280_humidity;BME280_pressure;Samples;Min_cycle;Max_cycle;Signal;HPM_P1;HPM_P2
2022/09/23 00:00:44;;;;;;;5.22;3.08;;;9.70;99.90;;;;;;5091791;28;20028;-60
2022/09/23 00:03:11;;;;;;;4.20;3.13;;;9.70;99.90;;;;;;5093185;28;20394;-60
2022/09/23 00:05:36;;;;;;;4.35;3.30;;;9.70;99.90;;;;;;5095659;28;20490;-60
2022/09/23 00:08:04;;;;;;;5.28;3.40;;;9.70;99.90;;;;;;5095640;28;20020;-60
2022/09/23 00:10:30;;;;;;;8.02;3.88;;;9.60;99.90;;;;;;5095814;28;20028;-60
2022/09/23 00:12:57;;;;;;;3.83;3.10;;;9.60;99.90;;;;;;5095996;28;20073;-60
2022/09/23 00:15:24;;;;;;;3.75;3.40;;;9.50;99.90;;;;;;5095753;28;20028;-60
2022/09/23 00:17:53;;;;;;;4.78;3.60;;;9.50;99.90;;;;;;5095490;28;20079;-60
2022/09/23 00:20:19;;;;;;;5.25;3.90;;;9.60;99.90;;;;;;5095626;28;20446;-60
2022/09/23 00:22:45;;;;;;;8.40;4.15;;;9.50;99.90;;;;;;5095058;28;20103;-60
2022/09/23 00:25:11;;;;;;;5.38;3.83;;;9.30;99.90;;;;;;5095359;28;20032;-61
2022/09/23 00:27:38;;;;;;;4.85;4.07;;;9.30;99.90;;;;;;5095566;28;20028;-60
2022/09/23 00:30:06;;;;;;;6.45;4.85;;;9.40;99.90;;;;;;5095337;28;20042;-60
2022/09/23 00:32:32;;;;;;;7.78;4.97;;;9.20;99.90;;;;;;5095471;28;20043;-60
2022/09/23 00:34:58;;;;;;;7.93;5.43;;;9.20;99.90;;;;;;5095154;28;20028;-60
2022/09/23 00:37:24;;;;;;;7.05;4.75;;;9.20;99.90;;;;;;5094672;28;20131;-60
2022/09/23 00:39:50;;;;;;;5.18;4.47;;;9.20;99.90;;;;;;5095180;28;20020;-60
2022/09/23 00:42:19;;;;;;;8.02;5.43;;;9.20;99.90;;;;;;5095107;28;20023;-60
2022/09/23 00:44:49;;;;;;;5.95;5.43;;;9.20;99.90;;;;;;5095333;28;20077;-60
2022/09/23 00:47:39;;;;;;;7.32;5.75;;;9.20;99.90;;;;;;5094906;28;20123;-60
2022/09/23 00:50:19;;;;;;;6.15;5.55;;;9.10;99.90;;;;;;5074634;28;20048;-60
2022/09/23 00:52:45;;;;;;;7.20;5.50;;;9.20;99.90;;;;;;5074082;28;20082;-60
2022/09/23 00:55:16;;;;;;;9.77;5.80;;;9.30;99.90;;;;;;5075004;28;20031;-60
2022/09/23 00:57:44;;;;;;;6.18;5.55;;;9.30;99.90;;;;;;5074542;28;20021;-60
2022/09/23 01:00:11;;;;;;;6.63;6.00;;;9.30;99.90;;;;;;5074376;28;20029;-60
2022/09/23 01:02:36;;;;;;;6.80;5.60;;;9.20;99.90;;;;;;5074756;28;20016;-60
2022/09/23 01:05:04;;;;;;;5.97;5.10;;;9.20;99.90;;;;;;5073727;28;20028;-60
2022/09/23 01:07:29;;;;;;;6.65;5.28;;;9.20;99.90;;;;;;5074594;28;20398;-60
2022/09/23 01:09:58;;;;;;;7.20;5.63;;;9.20;99.90;;;;;;5074130;28;20199;-60
2022/09/23 01:12:57;;;;;;;7.45;5.32;;;9.10;99.90;;;;;;5074325;28;20024;-60
2022/09/23 01:15:49;;;;;;;5.85;5.30;;;9.00;99.90;;;;;;5074050;28;20024;-60
2022/09/23 01:18:21;;;;;;;7.78;5.32;;;9.00;99.90;;;;;;5074045;28;20032;-60
2022/09/23 01:20:49;;;;;;;7.55;4.97;;;9.00;99.90;;;;;;5073703;28;20074;-60
2022/09/23 01:23:56;;;;;;;7.45;4.80;;;9.00;99.90;;;;;;5073902;28;20475;-60
2022/09/23 01:26:45;;;;;;;5.63;4.53;;;9.00;99.90;;;;;;5068176;28;20044;-60
2022/09/23 01:29:29;;;;;;;6.18;4.50;;;9.00;99.90;;;;;;5094423;28;20469;-60
2022/09/23 01:32:41;;;;;;;6.15;4.13;;;9.00;99.90;;;;;;5094177;28;20027;-60
2022/09/23 01:35:17;;;;;;;6.20;5.30;;;8.90;99.90;;;;;;5011665;28;20034;-60
2022/09/23 01:37:51;;;;;;;6.45;5.28;;;8.80;99.90;;;;;;5011977;28;20068;-60
2022/09/23 01:40:36;;;;;;;4.97;4.45;;;8.80;99.90;;;;;;5011952;28;20137;-60
2022/09/23 01:43:08;;;;;;;5.22;4.72;;;8.80;99.90;;;;;;5011882;28;20044;-61
2022/09/23 01:45:42;;;;;;;5.72;5.03;;;8.80;99.90;;;;;;5012028;28;20416;-60
2022/09/23 01:48:20;;;;;;;7.75;5.25;;;8.70;99.90;;;;;;5011557;28;20030;-60
2022/09/23 01:50:57;;;;;;;6.88;4.85;;;8.70;99.90;;;;;;5011134;28;20044;-60
2022/09/23 01:53:23;;;;;;;7.20;5.00;;;8.80;99.90;;;;;;5011259;28;20112;-60
2022/09/23 01:55:56;;;;;;;5.80;4.35;;;8.80;99.90;;;;;;5011733;28;20025;-60
2022/09/23 01:58:35;;;;;;;5.43;4.63;;;8.80;99.90;;;;;;5011387;28;20038;-60
2022/09/23 02:01:06;;;;;;;6.30;5.05;;;8.80;99.90;;;;;;5011488;28;20126;-60
2022/09/23 02:03:50;;;;;;;6.63;5.30;;;8.70;99.90;;;;;;5011068;28;20030;-60
2022/09/23 02:06:20;;;;;;;8.93;6.05;;;8.60;99.90;;;;;;5011523;28;20099;-60
2022/09/23 02:09:00;;;;;;;6.95;5.50;;;8.50;99.90;;;;;;5011174;28;20026;-60
2022/09/23 02:11:26;;;;;;;8.68;6.53;;;8.50;99.90;;;;;;5038049;28;20558;-60
2022/09/23 02:13:59;;;;;;;6.90;6.20;;;8.50;99.90;;;;;;5072781;28;20056;-60
2022/09/23 02:16:30;;;;;;;7.37;6.27;;;8.50;99.90;;;;;;5073404;28;20020;-60
2022/09/23 02:19:07;;;;;;;8.00;6.32;;;8.50;99.90;;;;;;5072701;28;20052;-60
2022/09/23 02:21:40;;;;;;;7.10;6.43;;;8.50;99.90;;;;;;5072951;28;20104;-60
2022/09/23 02:24:33;;;;;;;7.38;6.55;;;8.50;99.90;;;;;;5072941;28;20021;-60
2022/09/23 02:27:31;;;;;;;10.47;6.17;;;8.50;99.90;;;;;;5076012;28;20062;-61
2022/09/23 02:30:32;;;;;;;7.28;5.88;;;8.50;99.90;;;;;;5093084;28;20266;-60
2022/09/23 02:33:06;;;;;;;6.18;5.53;;;8.50;99.90;;;;;;5010469;28;20026;-60
2022/09/23 02:35:50;;;;;;;7.63;6.45;;;8.50;99.90;;;;;;5010756;28;20041;-60
2022/09/23 02:38:18;;;;;;;6.25;5.57;;;8.40;99.90;;;;;;5010919;28;20500;-60
2022/09/23 02:40:52;;;;;;;6.97;5.60;;;8.50;99.90;;;;;;5010950;28;20141;-60
2022/09/23 02:43:38;;;;;;;8.93;5.90;;;8.40;99.90;;;;;;5010513;28;20022;-60
2022/09/23 02:46:06;;;;;;;6.93;5.85;;;8.50;99.90;;;;;;5010580;28;20596;-60
2022/09/23 02:48:42;;;;;;;6.55;5.45;;;8.40;99.90;;;;;;5010535;28;20412;-60
2022/09/23 02:51:09;;;;;;;7.50;5.65;;;8.40;99.90;;;;;;5010905;28;20085;-60
2022/09/23 02:53:35;;;;;;;6.45;5.82;;;8.40;99.90;;;;;;5010567;28;20053;-60
2022/09/23 02:56:10;;;;;;;7.45;5.63;;;8.40;99.90;;;;;;5010393;28;20496;-60
2022/09/23 02:58:36;;;;;;;7.50;5.55;;;8.50;99.90;;;;;;5010638;28;20038;-60
2022/09/23 03:01:23;;;;;;;6.60;5.90;;;8.50;99.90;;;;;;5010054;28;20065;-60
2022/09/23 03:03:55;;;;;;;5.90;5.30;;;8.50;99.90;;;;;;5010897;28;20416;-61
2022/09/23 03:06:31;;;;;;;6.68;5.15;;;8.50;99.90;;;;;;5025903;28;20058;-60
2022/09/23 03:09:17;;;;;;;5.78;5.10;;;8.50;99.90;;;;;;5072242;28;20547;-60
2022/09/23 03:11:51;;;;;;;6.78;5.40;;;8.50;99.90;;;;;;5072290;28;20423;-60
2022/09/23 03:14:48;;;;;;;5.47;4.95;;;8.50;99.90;;;;;;5071983;28;20039;-60
2022/09/23 03:17:24;;;;;;;8.45;5.18;;;8.50;99.90;;;;;;5071723;28;20102;-60
2022/09/23 03:19:54;;;;;;;8.00;5.30;;;8.50;99.90;;;;;;5072138;28;20571;-60
2022/09/23 03:22:39;;;;;;;7.20;5.00;;;8.50;99.90;;;;;;5071050;28;20107;-60
2022/09/23 03:25:12;;;;;;;7.25;5.07;;;8.50;99.90;;;;;;5071260;28;20067;-60
2022/09/23 03:27:41;;;;;;;7.97;5.53;;;8.60;99.90;;;;;;5086710;28;20032;-61
2022/09/23 03:30:07;;;;;;;9.23;5.60;;;8.60;99.90;;;;;;5091000;28;20081;-60
2022/09/23 03:32:35;;;;;;;7.85;5.47;;;8.60;99.90;;;;;;5091126;28;20066;-60
2022/09/23 03:35:03;;;;;;;8.40;4.93;;;8.60;99.90;;;;;;5091062;28;20031;-60
2022/09/23 03:37:46;;;;;;;7.25;5.57;;;8.70;99.90;;;;;;5091703;28;20039;-60
2022/09/23 03:40:11;;;;;;;8.48;5.25;;;8.70;99.90;;;;;;5096152;28;20024;-61
2022/09/23 03:42:38;;;;;;;7.13;5.60;;;8.60;99.90;;;;;;5096118;28;20028;-60
2022/09/23 03:45:09;;;;;;;8.10;5.90;;;8.70;99.90;;;;;;5094512;28;20085;-60
2022/09/23 03:47:34;;;;;;;13.32;6.10;;;8.70;99.90;;;;;;5096312;28;20179;-60
2022/09/23 03:50:00;;;;;;;10.43;5.95;;;8.70;99.90;;;;;;5094801;28;20107;-60
2022/09/23 03:52:27;;;;;;;7.75;6.68;;;8.90;99.90;;;;;;5096061;28;20425;-60
2022/09/23 03:54:53;;;;;;;8.88;6.65;;;8.90;99.90;;;;;;5095689;28;20398;-61
2022/09/23 03:57:20;;;;;;;9.60;7.10;;;9.00;99.90;;;;;;5095801;28;20032;-61
2022/09/23 03:59:48;;;;;;;12.90;7.60;;;9.00;99.90;;;;;;5095570;28;20028;-59
2022/09/23 04:02:15;;;;;;;11.02;7.53;;;9.00;99.90;;;;;;5095831;28;20371;-59
2022/09/23 04:04:41;;;;;;;10.93;7.68;;;9.00;99.90;;;;;;5095972;28;20028;-61
2022/09/23 04:07:07;;;;;;;11.75;7.57;;;9.00;99.90;;;;;;5094617;28;20036;-61
2022/09/23 04:09:33;;;;;;;11.02;7.88;;;9.20;99.90;;;;;;5095616;28;20054;-60
2022/09/23 04:11:59;;;;;;;13.48;7.90;;;9.10;99.90;;;;;;5095619;28;20028;-61
2022/09/23 04:14:25;;;;;;;11.02;7.68;;;9.10;99.90;;;;;;5095240;28;20023;-61
2022/09/23 04:16:51;;;;;;;11.60;7.45;;;9.20;99.90;;;;;;5095551;28;20397;-60
2022/09/23 04:19:17;;;;;;;13.52;7.90;;;9.20;99.90;;;;;;5095839;28;20047;-60
2022/09/23 04:21:44;;;;;;;17.38;7.97;;;9.20;99.90;;;;;;5095633;28;20020;-61
2022/09/23 04:24:10;;;;;;;19.67;7.55;;;9.30;99.90;;;;;;5095341;28;20028;-60
2022/09/23 04:26:37;;;;;;;27.05;8.48;;;9.30;99.90;;;;;;5095492;28;20474;-60
2022/09/23 04:29:03;;;;;;;20.88;8.65;;;9.30;99.90;;;;;;5094817;28;20035;-60
2022/09/23 04:31:30;;;;;;;18.88;7.50;;;9.30;99.90;;;;;;5095365;28;20505;-60
2022/09/23 04:33:57;;;;;;;13.93;8.05;;;9.30;99.90;;;;;;5095313;28;20478;-60
2022/09/23 04:36:23;;;;;;;15.07;7.68;;;9.40;99.90;;;;;;5095082;28;20483;-60
2022/09/23 04:38:49;;;;;;;14.95;7.85;;;9.30;99.90;;;;;;5095020;28;20028;-60
2022/09/23 04:41:16;;;;;;;11.48;7.22;;;9.30;99.90;;;;;;5094934;28;20119;-60
2022/09/23 04:43:42;;;;;;;15.90;7.55;;;9.20;99.90;;;;;;5095071;28;20046;-60
2022/09/23 04:46:11;;;;;;;15.02;7.68;;;9.30;99.90;;;;;;5095163;28;20078;-61
2022/09/23 04:48:38;;;;;;;13.98;8.27;;;9.30;99.90;;;;;;5094566;28;20459;-61
2022/09/23 04:51:15;;;;;;;12.75;7.53;;;9.30;99.90;;;;;;5094966;28;20049;-60
2022/09/23 04:53:43;;;;;;;11.48;8.20;;;9.30;99.90;;;;;;5094849;28;20064;-60
2022/09/23 04:56:21;;;;;;;11.93;7.43;;;9.30;99.90;;;;;;5094793;28;20116;-60
2022/09/23 04:58:47;;;;;;;15.85;8.75;;;9.30;99.90;;;;;;5094331;28;20020;-61
2022/09/23 05:01:15;;;;;;;12.05;8.02;;;9.40;99.90;;;;;;5095026;28;20024;-61
2022/09/23 05:03:42;;;;;;;11.95;8.07;;;9.40;99.90;;;;;;5094611;28;20487;-60
2022/09/23 05:06:08;;;;;;;9.80;7.90;;;9.40;99.90;;;;;;5094488;28;20121;-60
2022/09/23 05:08:35;;;;;;;10.75;8.13;;;9.40;99.90;;;;;;5094553;28;20035;-60
2022/09/23 05:11:07;;;;;;;13.82;9.15;;;9.30;99.90;;;;;;5094918;28;20088;-60
2022/09/23 05:13:34;;;;;;;21.05;9.05;;;9.30;99.90;;;;;;5094033;28;20107;-60
2022/09/23 05:16:06;;;;;;;15.55;9.25;;;9.30;99.90;;;;;;5094366;28;20490;-60
2022/09/23 05:18:34;;;;;;;14.02;9.00;;;9.30;99.90;;;;;;5094339;28;20032;-60
2022/09/23 05:21:01;;;;;;;18.23;9.60;;;9.40;99.90;;;;;;5094191;28;20028;-60
2022/09/23 05:23:28;;;;;;;18.63;9.75;;;9.40;99.90;;;;;;5094207;28;20031;-60
2022/09/23 05:26:02;;;;;;;14.38;8.75;;;9.40;99.90;;;;;;5094589;28;20020;-60
2022/09/23 05:28:31;;;;;;;17.98;9.23;;;9.40;99.90;;;;;;5094259;28;20402;-60
2022/09/23 05:31:25;;;;;;;15.30;9.18;;;9.40;99.90;;;;;;5094118;28;20016;-60
2022/09/23 05:33:58;;;;;;;16.27;10.52;;;9.50;99.90;;;;;;5091097;28;20437;-60
2022/09/23 05:36:24;;;;;;;;;;;9.50;99.90;;;;;;5094307;28;20031;-60
2022/09/23 05:38:51;;;;;;;17.33;8.75;;;9.50;99.90;;;;;;5093810;28;19904;-60
2022/09/23 05:41:19;;;;;;;15.65;8.45;;;9.50;99.90;;;;;;5093837;28;20028;-61
2022/09/23 05:43:46;;;;;;;17.20;7.80;;;9.50;99.90;;;;;;5093935;28;20505;-61
2022/09/23 05:46:14;;;;;;;16.85;8.38;;;9.50;99.90;;;;;;5093763;28;20032;-60
2022/09/23 05:48:41;;;;;;;11.63;7.80;;;9.60;99.90;;;;;;5093855;28;20089;-61
2022/09/23 05:51:11;;;;;;;12.25;7.93;;;9.60;99.90;;;;;;5093703;28;20040;-60
2022/09/23 05:53:38;;;;;;;16.70;8.70;;;9.50;99.90;;;;;;5093474;28;20068;-60
2022/09/23 05:56:05;;;;;;;13.93;8.23;;;9.60;99.90;;;;;;5093221;28;20034;-61
2022/09/23 05:58:31;;;;;;;24.10;8.48;;;9.60;99.90;;;;;;5094178;28;20029;-60
2022/09/23 06:00:57;;;;;;;18.55;8.70;;;9.60;99.90;;;;;;5092617;28;20558;-60
2022/09/23 06:03:23;;;;;;;17.92;8.50;;;9.60;99.90;;;;;;5093597;28;20110;-61
2022/09/23 06:05:54;;;;;;;21.10;8.68;;;9.60;99.90;;;;;;5093424;28;20085;-60
2022/09/23 06:08:21;;;;;;;15.30;7.68;;;9.60;99.90;;;;;;5093303;28;20420;-60
2022/09/23 06:10:47;;;;;;;13.40;7.82;;;9.70;99.90;;;;;;5093403;28;20036;-61
2022/09/23 06:13:12;;;;;;;14.70;8.68;;;9.70;99.90;;;;;;5093423;28;20107;-60
2022/09/23 06:15:38;;;;;;;13.20;8.00;;;9.80;99.90;;;;;;5093295;28;20182;-60
2022/09/23 06:18:05;;;;;;;14.73;7.90;;;9.80;99.90;;;;;;5092983;28;20528;-59
2022/09/23 06:20:33;;;;;;;12.13;7.60;;;9.80;99.90;;;;;;5093087;28;20028;-59
2022/09/23 06:23:05;;;;;;;14.88;8.20;;;9.90;99.90;;;;;;5093064;28;20030;-60
2022/09/23 06:25:32;;;;;;;16.63;8.67;;;10.00;99.90;;;;;;5093313;28;20032;-60
2022/09/23 06:27:58;;;;;;;12.13;7.30;;;10.00;99.90;;;;;;5092727;28;20297;-61
2022/09/23 06:30:25;;;;;;;17.52;8.77;;;10.20;99.90;;;;;;5092116;28;20028;-60
2022/09/23 06:32:53;;;;;;;20.13;8.95;;;10.30;99.90;;;;;;5092334;28;20102;-60
2022/09/23 06:35:21;;;;;;;14.50;8.45;;;10.40;99.90;;;;;;5092813;28;20402;-61
2022/09/23 06:37:47;;;;;;;15.77;8.57;;;10.60;99.90;;;;;;5092974;28;20020;-60
2022/09/23 06:40:13;;;;;;;17.38;8.57;;;10.80;99.90;;;;;;5092454;28;20360;-59
2022/09/23 06:42:42;;;;;;;22.73;12.93;;;10.90;99.90;;;;;;5092745;28;20032;-60
2022/09/23 06:45:11;;;;;;;23.23;11.70;;;11.10;99.90;;;;;;5093185;28;20031;-60
2022/09/23 06:47:38;;;;;;;20.15;10.73;;;11.20;99.90;;;;;;5092538;28;20495;-59
2022/09/23 06:50:05;;;;;;;20.17;11.60;;;11.50;99.90;;;;;;5092592;28;20016;-59
2022/09/23 06:52:31;;;;;;;17.88;9.32;;;11.90;99.90;;;;;;5092666;28;20036;-60
2022/09/23 06:54:56;;;;;;;18.25;7.97;;;12.00;99.90;;;;;;5092306;28;20524;-60
2022/09/23 06:57:23;;;;;;;16.45;6.95;;;12.40;99.90;;;;;;5092666;28;20048;-60
2022/09/23 06:59:49;;;;;;;16.02;6.40;;;12.30;99.90;;;;;;5092349;28;20385;-60
2022/09/23 07:02:15;;;;;;;11.02;6.90;;;12.30;99.90;;;;;;5091985;28;20126;-60
2022/09/23 07:04:41;;;;;;;11.25;4.57;;;12.40;99.90;;;;;;5092176;28;20063;-62
2022/09/23 07:07:09;;;;;;;15.30;5.65;;;12.90;99.90;;;;;;5092479;28;20066;-62
2022/09/23 07:09:35;;;;;;;10.80;5.65;;;13.20;99.90;;;;;;5092178;28;20028;-62
2022/09/23 07:12:01;;;;;;;8.18;6.28;;;13.00;99.90;;;;;;5092551;28;20028;-60
2022/09/23 07:14:26;;;;;;;10.15;6.13;;;12.70;99.90;;;;;;5092465;28;20028;-60
2022/09/23 07:16:52;;;;;;;9.35;5.75;;;12.70;99.90;;;;;;5091993;28;20562;-60
2022/09/23 07:19:18;;;;;;;10.43;6.95;;;12.70;99.90;;;;;;5092168;28;20016;-61
2022/09/23 07:21:44;;;;;;;11.07;6.10;;;12.60;99.90;;;;;;5092304;28;20084;-60
2022/09/23 07:24:10;;;;;;;12.15;6.70;;;12.80;99.90;;;;;;5090787;28;20047;-60
2022/09/23 07:26:35;;;;;;;8.68;5.95;;;13.20;99.90;;;;;;5092352;28;20031;-60
2022/09/23 07:29:05;;;;;;;10.02;6.10;;;13.30;99.90;;;;;;5092078;28;20051;-60
2022/09/23 07:31:32;;;;;;;10.98;5.63;;;13.20;99.90;;;;;;5092150;28;20032;-60
2022/09/23 07:34:02;;;;;;;11.90;5.82;;;13.30;99.90;;;;;;5091951;28;20035;-61
2022/09/23 07:36:31;;;;;;;9.57;5.70;;;13.50;99.90;;;;;;5091834;28;20024;-60
2022/09/23 07:39:02;;;;;;;10.77;5.38;;;13.30;99.90;;;;;;5092081;28;20505;-60
2022/09/23 07:41:29;;;;;;;10.40;5.40;;;13.50;99.90;;;;;;5092006;28;20069;-61
2022/09/23 07:43:57;;;;;;;10.18;5.50;;;13.90;99.90;;;;;;5092192;28;20032;-61
2022/09/23 07:46:25;;;;;;;7.28;4.70;;;13.70;99.90;;;;;;5091851;28;20024;-60
2022/09/23 07:48:52;;;;;;;8.98;5.28;;;13.70;99.90;;;;;;5091786;28;20063;-60
2022/09/23 07:51:32;;;;;;;9.63;5.10;;;13.40;99.90;;;;;;5091608;28;20471;-60
2022/09/23 07:53:58;;;;;;;7.32;5.20;;;13.20;99.90;;;;;;5092089;28;20048;-60
2022/09/23 07:56:26;;;;;;;10.55;4.93;;;13.10;99.90;;;;;;5091937;28;20031;-60
2022/09/23 07:59:04;;;;;;;11.88;5.15;;;13.20;99.90;;;;;;5092125;28;20044;-61
2022/09/23 08:01:36;;;;;;;10.20;5.20;;;13.30;99.90;;;;;;5092150;28;20020;-60
2022/09/23 08:04:05;;;;;;;10.73;4.88;;;13.50;99.90;;;;;;5091933;28;20032;-60
2022/09/23 08:06:32;;;;;;;11.20;4.82;;;13.70;99.90;;;;;;5091406;28;20588;-60
2022/09/23 08:08:59;;;;;;;7.22;4.50;;;13.80;99.90;;;;;;5091772;28;20036;-61
2022/09/23 08:11:26;;;;;;;8.98;4.05;;;13.90;99.90;;;;;;5091613;28;20031;-60
2022/09/23 08:13:52;;;;;;;10.18;4.50;;;14.30;99.90;;;;;;5092193;28;20069;-60
2022/09/23 08:16:19;;;;;;;8.20;4.50;;;14.40;99.90;;;;;;5091673;28;20021;-60
2022/09/23 08:18:45;;;;;;;6.85;4.20;;;14.70;99.90;;;;;;5091585;28;20543;-60
2022/09/23 08:21:11;;;;;;;8.32;3.90;;;14.80;99.90;;;;;;5091696;28;20490;-60
2022/09/23 08:23:37;;;;;;;11.60;4.30;;;15.10;99.90;;;;;;5092112;28;20094;-60
2022/09/23 08:26:05;;;;;;;6.05;3.92;;;15.10;99.90;;;;;;5095264;28;20028;-60
2022/09/23 08:28:32;;;;;;;10.23;4.00;;;15.20;99.90;;;;;;5095642;28;20519;-60
2022/09/23 08:30:59;;;;;;;11.30;4.30;;;15.20;99.90;;;;;;5095618;28;20050;-60
2022/09/23 08:33:25;;;;;;;7.88;4.10;;;15.40;99.90;;;;;;5095253;28;20023;-60
2022/09/23 08:35:51;;;;;;;7.45;4.10;;;15.50;99.90;;;;;;5095012;28;20081;-60
2022/09/23 08:38:17;;;;;;;7.55;3.90;;;15.60;99.90;;;;;;5095171;28;20131;-60
2022/09/23 08:40:47;;;;;;;8.20;3.35;;;15.60;99.90;;;;;;5095433;28;20012;-60
2022/09/23 08:43:27;;;;;;;5.10;3.60;;;15.70;99.90;;;;;;5095416;28;20099;-60
2022/09/23 08:45:56;;;;;;;11.25;3.95;;;15.70;99.90;;;;;;5095096;28;20042;-60
2022/09/23 08:48:40;;;;;;;6.13;3.47;;;16.10;99.90;;;;;;5094770;28;20043;-60
2022/09/23 08:51:14;;;;;;;5.15;3.60;;;16.40;99.90;;;;;;5095136;28;20505;-60
2022/09/23 08:53:41;;;;;;;7.28;3.55;;;16.40;99.90;;;;;;5094717;28;20052;-60
2022/09/23 08:56:16;;;;;;;6.60;3.20;;;17.00;99.90;;;;;;5094828;28;20107;-60
2022/09/23 08:59:21;;;;;;;6.75;2.90;;;18.80;99.90;;;;;;5094596;28;20020;-60
2022/09/23 09:01:54;;;;;;;3.40;2.60;;;18.70;99.90;;;;;;5094284;28;20486;-60
2022/09/23 09:04:34;;;;;;;7.88;3.30;;;19.10;99.90;;;;;;5094370;28;20549;-60
2022/09/23 09:07:06;;;;;;;6.22;3.60;;;18.80;99.90;;;;;;5094785;28;20059;-60
2022/09/23 09:09:38;;;;;;;6.00;2.80;;;18.50;99.90;;;;;;5094483;28;20386;-59
2022/09/23 09:12:14;;;;;;;5.05;3.20;;;18.80;99.90;;;;;;5094523;28;20032;-60
2022/09/23 09:14:56;;;;;;;5.97;2.90;;;18.70;99.90;;;;;;5094788;28;20039;-60
2022/09/23 09:17:37;;;;;;;6.13;3.35;;;19.20;99.90;;;;;;5094359;28;20024;-60
2022/09/23 09:20:46;;;;;;;4.85;2.70;;;19.30;99.90;;;;;;5093909;28;20101;-60
2022/09/23 09:23:21;;;;;;;6.47;2.85;;;19.30;99.90;;;;;;5021379;28;20050;-59
2022/09/23 09:25:51;;;;;;;5.57;2.85;;;18.90;99.90;;;;;;5031772;28;20021;-60
2022/09/23 09:28:32;;;;;;;6.55;2.90;;;18.90;99.90;;;;;;5031562;28;20057;-60
2022/09/23 09:31:20;;;;;;;6.90;3.45;;;18.90;99.90;;;;;;5031853;28;20052;-60
2022/09/23 09:33:57;;;;;;;4.88;2.97;;;18.70;99.90;;;;;;5031488;28;20038;-60
2022/09/23 09:36:53;;;;;;;6.15;2.60;;;18.70;99.90;;;;;;5030419;28;20086;-59
2022/09/23 09:39:18;;;;;;;4.75;2.88;;;18.70;99.90;;;;;;5031685;28;20030;-60
2022/09/23 09:41:50;;;;;;;5.13;2.92;;;18.90;99.90;;;;;;5031595;28;20032;-60
2022/09/23 09:44:36;;;;;;;5.80;2.92;;;18.90;99.90;;;;;;5031563;28;20094;-60
2022/09/23 09:47:20;;;;;;;4.88;2.78;;;18.70;99.90;;;;;;5031555;28;20053;-60
2022/09/23 09:50:05;;;;;;;4.78;2.80;;;18.70;99.90;;;;;;5031815;28;20022;-60
2022/09/23 09:52:31;;;;;;;5.75;2.47;;;18.70;99.90;;;;;;5031256;28;20205;-60
2022/09/23 09:55:11;;;;;;;4.55;2.60;;;18.70;99.90;;;;;;5031026;28;20411;-61
2022/09/23 09:58:02;;;;;;;8.13;3.20;;;18.70;99.90;;;;;;5031310;28;20570;-60
2022/09/23 10:00:27;;;;;;;9.80;3.00;;;18.90;99.90;;;;;;5063888;28;20067;-61
2022/09/23 10:03:00;;;;;;;5.53;2.33;;;19.00;99.90;;;;;;5090294;28;20032;-62
2022/09/23 10:05:31;;;;;;;11.40;3.17;;;19.00;99.90;;;;;;5093163;28;20028;-61
2022/09/23 10:08:20;;;;;;;3.42;2.60;;;19.20;99.90;;;;;;5093106;28;20032;-60
2022/09/23 10:10:57;;;;;;;7.28;3.05;;;19.50;99.90;;;;;;5093574;28;20077;-60
2022/09/23 10:13:25;;;;;;;4.38;2.58;;;19.50;99.90;;;;;;5093159;28;20028;-60
2022/09/23 10:15:53;;;;;;;8.15;2.90;;;19.60;99.90;;;;;;5093387;28;20034;-60
2022/09/23 10:18:45;;;;;;;9.80;2.67;;;19.70;99.90;;;;;;5092814;28;20390;-60
2022/09/23 10:21:19;;;;;;;3.58;2.53;;;19.60;99.90;;;;;;5084636;28;20605;-60
2022/09/23 10:23:50;;;;;;;7.43;3.28;;;19.50;99.90;;;;;;5092905;28;20482;-60
2022/09/23 10:26:17;;;;;;;7.18;2.70;;;19.60;99.90;;;;;;5092411;28;20027;-60
2022/09/23 10:29:00;;;;;;;9.25;2.42;;;19.50;99.90;;;;;;5091996;28;20020;-60
2022/09/23 10:31:30;;;;;;;7.90;2.30;;;19.70;99.90;;;;;;5092263;28;20032;-60
2022/09/23 10:34:02;;;;;;;5.10;2.10;;;19.90;99.90;;;;;;5092736;28;20103;-60
2022/09/23 10:36:30;;;;;;;4.90;2.58;;;20.00;99.90;;;;;;5092820;28;20028;-60
2022/09/23 10:48:17;;;;;;;3.90;1.83;;;19.80;99.90;;;;;;5091843;28;19919;-60
2022/09/23 10:50:48;;;;;;;5.55;2.17;;;19.80;99.90;;;;;;5092404;28;20031;-60
2022/09/23 10:53:38;;;;;;;4.45;2.10;;;19.80;99.90;;;;;;5092504;28;20063;-60
2022/09/23 10:56:15;;;;;;;5.07;1.92;;;19.90;99.90;;;;;;5092332;28;20036;-60
2022/09/23 10:58:51;;;;;;;6.07;2.30;;;19.70;99.90;;;;;;5092404;28;20039;-60
2022/09/23 11:01:45;;;;;;;6.13;2.13;;;20.20;99.90;;;;;;5092171;28;20020;-60
2022/09/23 11:04:19;;;;;;;7.90;2.90;;;20.40;99.90;;;;;;5092553;28;20035;-60
2022/09/23 11:07:16;;;;;;;4.78;2.28;;;20.30;99.90;;;;;;5092008;28;20331;-60
2022/09/23 11:10:18;;;;;;;4.60;2.13;;;20.70;99.90;;;;;;5092089;28;20081;-60
2022/09/23 11:13:07;;;;;;;8.05;2.58;;;20.50;99.90;;;;;;5091979;28;20020;-60
2022/09/23 11:15:41;;;;;;;5.28;2.38;;;20.50;99.90;;;;;;5090480;28;20485;-60
2022/09/23 11:18:19;;;;;;;6.53;2.22;;;20.60;99.90;;;;;;5092132;28;20392;-60
2022/09/23 11:21:09;;;;;;;4.07;2.55;;;20.50;99.90;;;;;;5092256;28;20024;-60
2022/09/23 11:24:27;;;;;;;5.00;2.17;;;20.30;99.90;;;;;;5091936;28;20105;-60
2022/09/23 11:27:10;;;;;;;4.53;2.35;;;20.50;99.90;;;;;;5029080;28;20096;-60
2022/09/23 11:30:05;;;;;;;3.78;2.00;;;20.50;99.90;;;;;;5029212;28;20029;-60
2022/09/23 11:33:12;;;;;;;6.40;2.30;;;20.40;99.90;;;;;;5027442;28;20147;-60
2022/09/23 11:36:01;;;;;;;4.72;2.50;;;20.50;99.90;;;;;;5029528;28;20041;-60
2022/09/23 11:38:41;;;;;;;7.15;2.60;;;20.60;99.90;;;;;;5029430;28;20084;-60
2022/09/23 11:41:27;;;;;;;6.35;2.40;;;20.60;99.90;;;;;;5030133;28;20051;-60
2022/09/23 11:44:10;;;;;;;5.32;2.13;;;20.60;99.90;;;;;;5028965;28;20041;-60
2022/09/23 11:47:06;;;;;;;8.35;2.90;;;20.60;99.90;;;;;;5029406;28;20040;-60
2022/09/23 11:49:53;;;;;;;5.13;2.25;;;20.90;99.90;;;;;;5028990;28;20057;-60
2022/09/23 11:52:23;;;;;;;5.57;2.40;;;20.70;99.90;;;;;;5029225;28;20028;-60
2022/09/23 11:55:06;;;;;;;6.57;2.60;;;20.70;99.90;;;;;;5028874;28;20053;-60
2022/09/23 11:57:46;;;;;;;6.43;2.42;;;20.90;99.90;;;;;;5028762;28;20038;-60
2022/09/23 12:00:37;;;;;;;7.32;2.53;;;21.10;99.90;;;;;;5032397;28;20049;-60
2022/09/23 12:03:17;;;;;;;5.03;2.13;;;20.70;99.90;;;;;;5069779;28;20041;-60
2022/09/23 12:05:57;;;;;;;8.07;2.70;;;20.60;99.90;;;;;;5084078;28;20035;-60
2022/09/23 12:08:31;;;;;;;7.85;2.30;;;21.10;99.90;;;;;;5095315;28;20176;-60
2022/09/23 12:11:07;;;;;;;6.45;2.20;;;21.10;99.90;;;;;;5095547;28;20112;-60
2022/09/23 12:14:00;;;;;;;4.75;2.10;;;20.80;99.90;;;;;;5095501;28;20024;-59
2022/09/23 12:16:49;;;;;;;5.75;2.25;;;20.90;99.90;;;;;;5095585;28;20081;-60
2022/09/23 12:19:27;;;;;;;6.65;2.50;;;21.00;99.90;;;;;;5095587;28;20078;-60
2022/09/23 12:22:21;;;;;;;14.57;2.92;;;21.20;99.90;;;;;;5095076;28;20024;-60
2022/09/23 12:24:53;;;;;;;7.10;2.10;;;21.20;99.90;;;;;;5095139;28;20028;-60
2022/09/23 12:27:43;;;;;;;6.20;1.90;;;21.10;99.90;;;;;;5094944;28;20036;-60
2022/09/23 12:30:25;;;;;;;4.72;2.10;;;21.00;99.90;;;;;;5095581;28;20436;-60
2022/09/23 12:32:53;;;;;;;3.88;1.83;;;20.70;99.90;;;;;;5095116;28;20028;-60
2022/09/23 12:35:34;;;;;;;3.78;1.98;;;21.00;99.90;;;;;;5095035;28;20024;-60
2022/09/23 12:38:01;;;;;;;6.22;2.10;;;20.90;99.90;;;;;;5094706;28;20035;-60
2022/09/23 12:40:35;;;;;;;6.35;2.17;;;21.30;99.90;;;;;;5094952;28;20016;-60
2022/09/23 12:43:01;;;;;;;6.20;2.10;;;21.60;99.90;;;;;;5094747;28;20039;-60
2022/09/23 12:45:31;;;;;;;4.95;1.90;;;21.50;99.90;;;;;;5095205;28;20024;-60
2022/09/23 12:48:02;;;;;;;4.25;1.98;;;21.70;99.90;;;;;;5094234;28;20513;-60
2022/09/23 12:50:46;;;;;;;11.90;2.60;;;21.70;99.90;;;;;;5094730;28;20020;-61
2022/09/23 12:53:32;;;;;;;4.05;2.05;;;21.90;99.90;;;;;;5094377;28;20054;-60
2022/09/23 12:55:59;;;;;;;4.57;2.10;;;21.50;99.90;;;;;;5082033;28;20079;-60
2022/09/23 12:58:59;;;;;;;4.03;1.77;;;21.30;99.90;;;;;;5094531;28;20024;-60
2022/09/23 13:01:26;;;;;;;4.43;1.83;;;21.20;99.90;;;;;;5093029;28;20494;-60
2022/09/23 13:07:05;;;;;;;3.65;1.55;;;21.20;99.90;;;;;;5093748;28;20809;-62
2022/09/23 13:09:41;;;;;;;9.35;1.70;;;21.40;99.90;;;;;;5088074;28;20044;-61
2022/09/23 13:12:22;;;;;;;6.88;1.88;;;21.50;99.90;;;;;;5093909;28;20081;-60
2022/09/23 13:14:51;;;;;;;6.05;1.90;;;21.40;99.90;;;;;;5093698;28;20019;-60
2022/09/23 13:17:29;;;;;;;7.10;1.80;;;21.20;99.90;;;;;;5094233;28;20016;-60
2022/09/23 13:20:02;;;;;;;6.88;1.90;;;21.00;99.90;;;;;;5093856;28;20026;-60
2022/09/23 13:22:53;;;;;;;7.47;2.60;;;21.20;99.90;;;;;;5094617;28;20382;-60
2022/09/23 13:25:25;;;;;;;6.15;1.80;;;21.30;99.90;;;;;;5093481;28;20457;-60
2022/09/23 13:27:54;;;;;;;6.70;1.80;;;21.30;99.90;;;;;;5094042;28;20444;-60
2022/09/23 13:30:22;;;;;;;7.00;1.73;;;21.30;99.90;;;;;;5093944;28;20447;-60
2022/09/23 13:33:23;;;;;;;4.85;1.75;;;21.00;99.90;;;;;;5094332;28;20024;-60